Terminal Aerodrome Forecast
Issued by NWS Green Bay, WI

Home | Current Version | Previous Version | Graphics & Text | Print | Product List | Glossary On
Versions: 1 2 3 4 5 6 7 8 9 10 11 12 13 14 15 16 17 18 19 20 21 22 23 24 25 26 27 28 29 30 31 32 33
000
FTUS43 KGRB 272300
TAFGRB
TAF
KGRB 272324Z 2800/2824 VRB03KT P6SM SCT250
      TEMPO 2808/2812 2SM BR
     FM281300 12006KT P6SM SCT090 BKN250
     FM282100 12008KT P6SM OVC080=

USA.gov is the U.S. government's official web portal to all federal, state and local government web resources and services.